Time;durP1;ratioP1;P1;durP2;ratioP2;P2;SDS_P1;SDS_P2;PMS_P1;PMS_P2;Temp;Humidity;BMP_temperature;BMP_pressure;BME280_temperature;BME280_humidity;BME280_pressure;Samples;Min_cycle;Max_cycle;Signal;HPM_P1;HPM_P2
2021/07/22 00:01:25;;;;;;;1999.90;999.90;;;;;;;;;;5048019;28;20063;-86
2021/07/22 00:03:50;;;;;;;1999.90;999.90;;;;;;;;;;5044156;28;20025;-86
2021/07/22 00:06:15;;;;;;;1999.90;999.90;;;;;;;;;;5048072;28;20017;-86
2021/07/22 00:08:41;;;;;;;1999.90;999.90;;;;;;;;;;5044674;28;20021;-86
2021/07/22 00:11:07;;;;;;;1999.90;999.90;;;;;;;;;;5040767;28;20407;-86
2021/07/22 00:13:32;;;;;;;1999.90;999.90;;;;;;;;;;5045947;28;20025;-85
2021/07/22 00:15:57;;;;;;;1999.90;999.90;;;;;;;;;;5040429;28;20031;-85
2021/07/22 00:18:23;;;;;;;1999.90;999.90;;;;;;;;;;5043870;28;20029;-85
2021/07/22 00:20:49;;;;;;;1999.90;999.90;;;;;;;;;;5039785;28;20041;-87
2021/07/22 00:23:14;;;;;;;1999.90;999.90;;;;;;;;;;5043779;28;20062;-87
2021/07/22 00:25:41;;;;;;;1999.90;999.90;;;;;;;;;;5045955;28;20391;-86
2021/07/22 00:28:07;;;;;;;1999.90;999.90;;;;;;;;;;5045042;28;20029;-86
2021/07/22 00:30:33;;;;;;;1999.90;999.90;;;;;;;;;;5038838;28;20494;-87
2021/07/22 00:32:58;;;;;;;1999.90;999.90;;;;;;;;;;5043804;28;20033;-86
2021/07/22 00:35:24;;;;;;;1999.90;999.90;;;;;;;;;;5042115;28;20025;-86
2021/07/22 00:37:49;;;;;;;1999.90;999.90;;;;;;;;;;5051016;28;20437;-86
2021/07/22 00:40:15;;;;;;;1999.90;999.90;;;;;;;;;;5037846;28;20037;-87
2021/07/22 00:42:56;;;;;;;1999.90;999.90;;;;;;;;;;5044886;28;20035;-87
2021/07/22 00:45:22;;;;;;;270.17;45.15;;;;;;;;;;5035756;28;20036;-86
2021/07/22 00:47:47;;;;;;;11.15;6.75;;;;;;;;;;5047440;28;20393;-86
2021/07/22 00:50:13;;;;;;;14.50;7.68;;;;;;;;;;5039005;28;20017;-86
2021/07/22 00:52:38;;;;;;;11.77;7.63;;;;;;;;;;5043049;28;20067;-86
2021/07/22 00:55:04;;;;;;;11.75;7.43;;;;;;;;;;5044996;28;20025;-86
2021/07/22 00:57:29;;;;;;;11.38;7.30;;;;;;;;;;5044312;28;20421;-86
2021/07/22 00:59:55;;;;;;;14.85;7.38;;;;;;;;;;5046046;28;20024;-86
2021/07/22 01:02:21;;;;;;;17.80;8.20;;;;;;;;;;5047872;28;20044;-85
2021/07/22 01:04:46;;;;;;;11.65;8.18;;;;;;;;;;5043956;28;20045;-85
2021/07/22 01:07:11;;;;;;;12.98;7.72;;;;;;;;;;5041327;28;20033;-85
2021/07/22 01:09:37;;;;;;;10.85;7.00;;;;;;;;;;5041725;28;20032;-85
2021/07/22 01:12:02;;;;;;;18.00;8.20;;;;;;;;;;5047183;28;20017;-85
2021/07/22 01:14:28;;;;;;;12.23;7.50;;;;;;;;;;5043075;28;20032;-86
2021/07/22 01:16:54;;;;;;;11.90;7.45;;;;;;;;;;5044843;28;20051;-85
2021/07/22 01:19:19;;;;;;;12.55;7.22;;;;;;;;;;5034998;28;20025;-85
2021/07/22 01:21:44;;;;;;;12.55;7.22;;;;;;;;;;5042370;28;20029;-85
2021/07/22 01:24:10;;;;;;;11.40;6.78;;;;;;;;;;5047746;28;20086;-86
2021/07/22 01:26:36;;;;;;;14.15;7.63;;;;;;;;;;5045292;28;20641;-85
2021/07/22 01:29:01;;;;;;;1999.90;999.90;;;;;;;;;;5047554;28;20031;-85
2021/07/22 01:31:26;;;;;;;16.05;8.15;;;;;;;;;;5041155;28;20041;-86
2021/07/22 01:33:52;;;;;;;10.60;7.78;;;;;;;;;;5041404;28;20518;-86
2021/07/22 01:36:22;;;;;;;11.35;7.05;;;;;;;;;;5044931;28;20036;-85
2021/07/22 01:38:52;;;;;;;12.40;7.32;;;;;;;;;;5047816;28;20540;-86
2021/07/22 01:41:17;;;;;;;13.45;8.45;;;;;;;;;;5034067;28;20083;-85
2021/07/22 01:43:43;;;;;;;12.20;7.68;;;;;;;;;;5043110;28;20037;-85
2021/07/22 01:46:08;;;;;;;12.48;7.45;;;;;;;;;;5048464;28;20032;-85
2021/07/22 01:48:33;;;;;;;13.15;7.35;;;;;;;;;;5042190;28;20022;-85
2021/07/22 01:50:59;;;;;;;16.77;8.45;;;;;;;;;;5042513;28;20017;-85
2021/07/22 01:53:24;;;;;;;13.23;7.75;;;;;;;;;;5042766;28;20017;-86
2021/07/22 01:55:50;;;;;;;13.65;7.97;;;;;;;;;;5044659;28;20079;-85
2021/07/22 01:58:15;;;;;;;14.40;8.45;;;;;;;;;;5042012;28;20488;-84
2021/07/22 02:00:40;;;;;;;18.38;8.75;;;;;;;;;;5035096;28;20083;-85
2021/07/22 02:03:06;;;;;;;12.85;8.45;;;;;;;;;;5033857;28;20022;-86
2021/07/22 02:05:31;;;;;;;14.80;8.50;;;;;;;;;;5045887;28;20033;-85
2021/07/22 02:07:57;;;;;;;12.15;8.45;;;;;;;;;;5046164;28;20036;-85
2021/07/22 02:10:22;;;;;;;14.25;8.98;;;;;;;;;;5041438;28;20528;-86
2021/07/22 02:12:47;;;;;;;13.68;8.95;;;;;;;;;;5041701;28;20365;-85
2021/07/22 02:15:13;;;;;;;15.77;8.63;;;;;;;;;;5041413;28;20025;-85
2021/07/22 02:17:38;;;;;;;13.82;8.15;;;;;;;;;;5036383;28;20168;-85
2021/07/22 02:20:04;;;;;;;12.95;8.68;;;;;;;;;;5048134;28;20029;-84
2021/07/22 02:22:30;;;;;;;10.40;7.70;;;;;;;;;;5043329;28;20095;-85
2021/07/22 02:24:55;;;;;;;11.27;7.35;;;;;;;;;;5043963;28;20027;-85
2021/07/22 02:27:21;;;;;;;12.68;7.43;;;;;;;;;;5043978;28;20032;-85
2021/07/22 02:29:46;;;;;;;11.18;7.75;;;;;;;;;;5044070;28;20036;-85
2021/07/22 02:32:11;;;;;;;17.00;8.10;;;;;;;;;;5039992;28;20040;-86
2021/07/22 02:34:37;;;;;;;14.25;8.18;;;;;;;;;;5041958;28;20079;-85
2021/07/22 02:37:02;;;;;;;15.57;7.78;;;;;;;;;;5035101;28;20028;-84
2021/07/22 02:39:28;;;;;;;14.05;7.55;;;;;;;;;;5041745;28;20021;-85
2021/07/22 02:41:53;;;;;;;15.70;7.50;;;;;;;;;;5042064;28;20017;-85
2021/07/22 02:44:19;;;;;;;11.45;7.50;;;;;;;;;;5040153;28;20115;-85
2021/07/22 02:46:44;;;;;;;10.50;7.18;;;;;;;;;;5038965;28;20021;-84
2021/07/22 02:49:10;;;;;;;12.25;7.63;;;;;;;;;;5044721;28;20124;-84
2021/07/22 02:51:35;;;;;;;12.32;7.50;;;;;;;;;;5039654;28;20485;-85
2021/07/22 02:54:00;;;;;;;13.60;7.40;;;;;;;;;;5034015;28;20480;-84
2021/07/22 02:56:26;;;;;;;12.57;7.35;;;;;;;;;;5044520;28;20020;-84
2021/07/22 02:58:51;;;;;;;13.43;7.68;;;;;;;;;;5041937;28;20047;-85
2021/07/22 03:01:17;;;;;;;12.02;7.40;;;;;;;;;;5050579;28;20090;-85
2021/07/22 03:03:42;;;;;;;12.70;7.25;;;;;;;;;;5050297;28;20121;-84
2021/07/22 03:06:07;;;;;;;12.60;7.75;;;;;;;;;;5042604;28;20013;-85
2021/07/22 03:08:35;;;;;;;13.85;7.35;;;;;;;;;;5038752;28;20025;-84
2021/07/22 03:11:00;;;;;;;14.45;8.20;;;;;;;;;;5044739;28;20021;-84
2021/07/22 03:13:26;;;;;;;13.10;7.80;;;;;;;;;;5045921;28;20101;-84
2021/07/22 03:15:51;;;;;;;15.35;7.93;;;;;;;;;;5044817;28;20028;-85
2021/07/22 03:18:17;;;;;;;12.52;7.30;;;;;;;;;;5042669;28;20032;-83
2021/07/22 03:20:42;;;;;;;13.52;7.53;;;;;;;;;;5046396;28;20035;-85
2021/07/22 03:23:07;;;;;;;12.23;8.40;;;;;;;;;;5043718;28;20048;-84
2021/07/22 03:25:33;;;;;;;11.50;7.03;;;;;;;;;;5042252;28;20393;-85
2021/07/22 03:28:02;;;;;;;11.45;7.55;;;;;;;;;;5041368;28;20033;-84
2021/07/22 03:30:28;;;;;;;14.27;7.70;;;;;;;;;;5044753;28;20031;-84
2021/07/22 03:32:53;;;;;;;15.13;8.23;;;;;;;;;;5042069;28;20048;-85
2021/07/22 03:35:19;;;;;;;13.60;7.97;;;;;;;;;;5046983;28;20029;-84
2021/07/22 03:37:44;;;;;;;18.02;7.82;;;;;;;;;;5045904;28;20028;-85
2021/07/22 03:40:10;;;;;;;14.15;8.40;;;;;;;;;;5041142;28;20033;-85
2021/07/22 03:42:36;;;;;;;12.43;7.78;;;;;;;;;;5037870;28;20118;-84
2021/07/22 03:45:01;;;;;;;14.30;8.70;;;;;;;;;;5038406;28;20050;-86
2021/07/22 03:47:26;;;;;;;14.73;8.30;;;;;;;;;;5043392;28;20036;-84
2021/07/22 03:49:52;;;;;;;15.70;7.93;;;;;;;;;;5037170;28;20033;-85
2021/07/22 03:52:17;;;;;;;14.82;8.60;;;;;;;;;;5045313;28;20034;-84
2021/07/22 03:54:43;;;;;;;14.10;8.57;;;;;;;;;;5036225;28;20033;-84
2021/07/22 03:57:08;;;;;;;13.25;8.02;;;;;;;;;;5041963;28;20021;-85
2021/07/22 03:59:34;;;;;;;16.27;8.70;;;;;;;;;;5039628;28;20062;-85
2021/07/22 04:02:01;;;;;;;10.50;7.30;;;;;;;;;;5043913;28;20504;-85
2021/07/22 04:04:27;;;;;;;14.25;8.43;;;;;;;;;;5044813;28;20049;-85
2021/07/22 04:06:52;;;;;;;13.65;8.05;;;;;;;;;;5051103;28;20033;-85
2021/07/22 04:09:18;;;;;;;13.70;8.15;;;;;;;;;;5044361;28;20033;-85
2021/07/22 04:11:43;;;;;;;15.20;8.60;;;;;;;;;;5045181;28;20028;-85
2021/07/22 04:14:08;;;;;;;12.43;7.78;;;;;;;;;;5046799;28;20074;-86
2021/07/22 04:16:37;;;;;;;13.68;8.35;;;;;;;;;;5048476;28;20706;-85
2021/07/22 04:19:03;;;;;;;14.88;8.93;;;;;;;;;;5042801;28;20032;-85
2021/07/22 04:21:29;;;;;;;13.90;8.57;;;;;;;;;;5040732;28;20029;-84
2021/07/22 04:23:55;;;;;;;14.02;8.05;;;;;;;;;;5036701;28;20104;-84
2021/07/22 04:26:20;;;;;;;12.20;7.97;;;;;;;;;;5038255;28;20121;-84
2021/07/22 04:28:46;;;;;;;17.33;7.70;;;;;;;;;;5038321;28;20025;-84
2021/07/22 04:31:18;;;;;;;12.38;7.55;;;;;;;;;;5037837;28;20058;-84
2021/07/22 04:33:45;;;;;;;15.20;8.43;;;;;;;;;;5045792;28;20068;-84
2021/07/22 04:36:10;;;;;;;13.88;7.80;;;;;;;;;;5042296;28;20436;-85
2021/07/22 04:38:37;;;;;;;13.10;8.27;;;;;;;;;;5048565;28;20096;-84
2021/07/22 04:41:06;;;;;;;13.90;8.35;;;;;;;;;;5043855;28;20404;-86
2021/07/22 04:43:32;;;;;;;18.15;9.90;;;;;;;;;;5041630;28;20648;-85
2021/07/22 04:46:06;;;;;;;16.40;9.27;;;;;;;;;;5048365;28;20037;-85
2021/07/22 04:48:33;;;;;;;18.27;9.07;;;;;;;;;;5033561;28;20059;-84
2021/07/22 04:51:04;;;;;;;15.57;8.50;;;;;;;;;;5047189;28;20024;-85
2021/07/22 04:53:29;;;;;;;13.40;8.82;;;;;;;;;;5041672;28;20017;-85
2021/07/22 04:55:55;;;;;;;14.18;8.88;;;;;;;;;;5045086;28;20040;-85
2021/07/22 04:58:20;;;;;;;16.25;9.52;;;;;;;;;;5045250;28;20052;-85
2021/07/22 05:00:49;;;;;;;15.80;9.23;;;;;;;;;;5072153;28;20025;-84
2021/07/22 05:03:14;;;;;;;14.20;9.32;;;;;;;;;;5065895;28;20012;-83
2021/07/22 05:05:40;;;;;;;18.15;8.98;;;;;;;;;;5054249;28;20044;-84
2021/07/22 05:08:05;;;;;;;13.10;7.85;;;;;;;;;;5041643;28;20025;-82
2021/07/22 05:10:31;;;;;;;17.73;9.32;;;;;;;;;;5034615;28;20392;-84
2021/07/22 05:13:00;;;;;;;14.52;8.88;;;;;;;;;;5043825;28;20027;-84
2021/07/22 05:15:26;;;;;;;14.70;8.57;;;;;;;;;;5039584;28;20035;-84
2021/07/22 05:17:52;;;;;;;14.10;9.05;;;;;;;;;;5041720;28;20148;-84
2021/07/22 05:20:18;;;;;;;18.83;9.32;;;;;;;;;;5040843;28;20044;-84
2021/07/22 05:22:43;;;;;;;14.52;9.48;;;;;;;;;;5037888;28;20043;-84
2021/07/22 05:25:09;;;;;;;19.05;9.05;;;;;;;;;;5039086;28;20472;-84
2021/07/22 05:27:35;;;;;;;14.32;8.85;;;;;;;;;;5037477;28;20037;-82
2021/07/22 05:30:00;;;;;;;17.40;9.70;;;;;;;;;;5041699;28;20033;-82
2021/07/22 05:32:26;;;;;;;15.38;9.35;;;;;;;;;;5034649;28;20028;-82
2021/07/22 05:34:51;;;;;;;13.38;8.68;;;;;;;;;;5041817;28;20041;-82
2021/07/22 05:37:16;;;;;;;16.50;9.38;;;;;;;;;;5040439;28;20029;-82
2021/07/22 05:39:42;;;;;;;16.10;9.73;;;;;;;;;;5064264;28;20033;-82
2021/07/22 05:42:07;;;;;;;16.90;9.20;;;;;;;;;;5038521;28;20029;-82
2021/07/22 05:44:33;;;;;;;20.48;11.05;;;;;;;;;;5038353;28;20060;-82
2021/07/22 05:46:58;;;;;;;16.42;10.48;;;;;;;;;;5030898;28;20032;-83
2021/07/22 05:49:24;;;;;;;18.00;10.40;;;;;;;;;;5038816;28;20438;-82
2021/07/22 05:51:49;;;;;;;17.00;11.13;;;;;;;;;;5046077;28;20021;-83
2021/07/22 05:54:15;;;;;;;20.73;10.57;;;;;;;;;;5042503;28;20024;-81
2021/07/22 05:56:40;;;;;;;16.95;10.93;;;;;;;;;;5044138;28;20477;-81
2021/07/22 05:59:05;;;;;;;18.23;10.32;;;;;;;;;;5047054;28;20396;-82
2021/07/22 06:01:31;;;;;;;14.93;9.73;;;;;;;;;;5036099;28;20157;-81
2021/07/22 06:03:57;;;;;;;15.43;10.07;;;;;;;;;;5043061;28;20285;-82
2021/07/22 06:06:22;;;;;;;16.75;10.27;;;;;;;;;;5036548;28;20037;-81
2021/07/22 06:08:49;;;;;;;17.25;10.55;;;;;;;;;;5046291;28;20075;-81
2021/07/22 06:11:16;;;;;;;16.20;10.13;;;;;;;;;;5042915;28;20029;-81
2021/07/22 06:13:42;;;;;;;15.75;9.77;;;;;;;;;;5040471;28;20027;-81
2021/07/22 06:16:14;;;;;;;19.75;9.88;;;;;;;;;;5035701;28;20048;-81
2021/07/22 06:18:41;;;;;;;16.40;9.45;;;;;;;;;;5038166;28;20021;-82
2021/07/22 06:21:11;;;;;;;15.07;9.90;;;;;;;;;;5037723;28;20540;-82
2021/07/22 06:23:36;;;;;;;17.63;9.57;;;;;;;;;;5038230;28;20029;-82
2021/07/22 06:26:01;;;;;;;15.18;9.90;;;;;;;;;;5039256;28;20459;-82
2021/07/22 06:28:27;;;;;;;15.77;10.25;;;;;;;;;;5045827;28;20110;-82
2021/07/22 06:30:54;;;;;;;16.58;11.40;;;;;;;;;;5035802;28;20485;-83
2021/07/22 06:33:20;;;;;;;18.80;10.70;;;;;;;;;;5043999;28;20027;-82
2021/07/22 06:35:45;;;;;;;19.80;11.07;;;;;;;;;;5036266;28;20078;-83
2021/07/22 06:38:12;;;;;;;18.63;10.13;;;;;;;;;;5041884;28;20021;-82
2021/07/22 06:40:37;;;;;;;16.27;9.93;;;;;;;;;;5046627;28;20549;-82
2021/07/22 06:43:02;;;;;;;18.92;9.98;;;;;;;;;;5046143;28;20025;-82
2021/07/22 06:45:28;;;;;;;16.50;10.00;;;;;;;;;;5045266;28;20100;-83
2021/07/22 06:47:53;;;;;;;17.42;11.25;;;;;;;;;;5037939;28;20032;-82
2021/07/22 06:50:19;;;;;;;17.45;10.55;;;;;;;;;;5040757;28;20025;-82
2021/07/22 06:52:45;;;;;;;18.02;10.10;;;;;;;;;;5050439;28;20073;-82
2021/07/22 06:55:10;;;;;;;16.27;7.50;;;;;;;;;;5042700;28;20026;-82
2021/07/22 06:57:36;;;;;;;45.95;8.00;;;;;;;;;;5042685;28;20388;-82
2021/07/22 07:00:06;;;;;;;58.05;15.88;;;;;;;;;;5050087;28;20020;-82
2021/07/22 07:02:31;;;;;;;18.67;9.10;;;;;;;;;;5045674;28;20128;-81
2021/07/22 07:04:57;;;;;;;15.90;10.02;;;;;;;;;;5037932;28;20117;-82
2021/07/22 07:07:22;;;;;;;18.55;9.18;;;;;;;;;;5040315;28;20033;-81
2021/07/22 07:09:48;;;;;;;12.93;7.75;;;;;;;;;;5046838;28;20088;-82
2021/07/22 07:12:13;;;;;;;15.75;8.15;;;;;;;;;;5045974;28;20025;-82
2021/07/22 07:14:39;;;;;;;14.63;8.27;;;;;;;;;;5046666;28;20035;-82
2021/07/22 07:17:05;;;;;;;15.25;8.60;;;;;;;;;;5050348;28;20037;-82
2021/07/22 07:19:31;;;;;;;15.95;7.78;;;;;;;;;;5048474;28;20033;-83
2021/07/22 07:21:56;;;;;;;17.65;8.63;;;;;;;;;;5045677;28;20025;-83
2021/07/22 07:24:21;;;;;;;17.10;9.85;;;;;;;;;;5047670;28;20029;-83
2021/07/22 07:26:47;;;;;;;20.48;11.35;;;;;;;;;;5050011;28;20393;-82
2021/07/22 07:29:12;;;;;;;16.25;11.10;;;;;;;;;;5053246;28;20488;-82
2021/07/22 07:31:38;;;;;;;18.83;11.23;;;;;;;;;;5043270;28;20029;-82
2021/07/22 07:34:04;;;;;;;19.17;10.80;;;;;;;;;;5042458;28;20165;-82
2021/07/22 07:36:29;;;;;;;18.00;10.57;;;;;;;;;;5037985;28;20029;-82
2021/07/22 07:38:55;;;;;;;18.58;10.82;;;;;;;;;;5048886;28;20033;-82
2021/07/22 07:41:20;;;;;;;21.05;10.52;;;;;;;;;;5049567;28;20170;-82
2021/07/22 07:43:46;;;;;;;15.50;9.52;;;;;;;;;;5048689;28;20067;-83
2021/07/22 07:46:11;;;;;;;14.10;9.57;;;;;;;;;;5044641;28;20030;-83
2021/07/22 07:48:36;;;;;;;16.42;10.23;;;;;;;;;;5044340;28;20020;-83
2021/07/22 07:51:05;;;;;;;18.80;11.15;;;;;;;;;;5044265;28;20018;-82
2021/07/22 07:53:31;;;;;;;16.65;11.23;;;;;;;;;;5044931;28;20028;-82
2021/07/22 07:55:56;;;;;;;19.27;10.13;;;;;;;;;;5046931;28;20024;-82
2021/07/22 07:58:22;;;;;;;19.70;10.82;;;;;;;;;;5046825;28;20032;-82
2021/07/22 08:00:48;;;;;;;18.83;11.15;;;;;;;;;;5041510;28;20030;-82
2021/07/22 08:03:21;;;;;;;20.48;10.70;;;;;;;;;;5042571;28;20044;-82
2021/07/22 08:05:47;;;;;;;17.15;10.77;;;;;;;;;;5044545;28;20052;-82
2021/07/22 08:08:13;;;;;;;15.85;9.68;;;;;;;;;;5041599;28;20068;-82
2021/07/22 08:10:40;;;;;;;19.15;9.20;;;;;;;;;;5041201;28;20456;-83
2021/07/22 08:13:10;;;;;;;17.00;9.45;;;;;;;;;;5043349;28;20025;-83
2021/07/22 08:15:36;;;;;;;14.50;9.40;;;;;;;;;;5034954;28;20052;-83
2021/07/22 08:18:02;;;;;;;18.08;9.88;;;;;;;;;;5041889;28;20024;-82
2021/07/22 08:20:27;;;;;;;14.43;9.25;;;;;;;;;;5047799;28;20304;-82
2021/07/22 08:22:53;;;;;;;15.00;9.80;;;;;;;;;;5039851;28;20021;-82
2021/07/22 08:25:18;;;;;;;13.27;8.93;;;;;;;;;;5046633;28;20036;-82
2021/07/22 08:27:45;;;;;;;15.65;9.70;;;;;;;;;;5043876;28;20025;-82
2021/07/22 08:30:11;;;;;;;16.42;9.32;;;;;;;;;;5045775;28;20068;-82
2021/07/22 08:32:37;;;;;;;17.85;9.77;;;;;;;;;;5049304;28;20028;-83
2021/07/22 08:35:03;;;;;;;16.95;9.45;;;;;;;;;;5049348;28;20017;-83
2021/07/22 08:37:28;;;;;;;18.38;9.52;;;;;;;;;;5041687;28;20384;-82
2021/07/22 08:39:57;;;;;;;14.52;9.93;;;;;;;;;;5046089;28;20064;-82
2021/07/22 08:42:26;;;;;;;16.70;9.50;;;;;;;;;;5049373;28;20306;-82
2021/07/22 08:44:53;;;;;;;17.58;9.27;;;;;;;;;;5060958;28;20120;-81
2021/07/22 08:47:18;;;;;;;15.23;10.25;;;;;;;;;;5049006;28;20089;-81
2021/07/22 08:49:43;;;;;;;15.07;9.63;;;;;;;;;;5046388;28;20033;-83
2021/07/22 08:52:11;;;;;;;13.30;9.23;;;;;;;;;;5044049;28;20156;-82
2021/07/22 08:54:37;;;;;;;13.48;9.35;;;;;;;;;;5043698;28;20062;-82
2021/07/22 08:57:06;;;;;;;12.40;9.35;;;;;;;;;;5036051;28;20029;-81
2021/07/22 08:59:32;;;;;;;19.13;11.25;;;;;;;;;;5044315;28;20029;-82
2021/07/22 09:01:59;;;;;;;20.23;10.45;;;;;;;;;;5039035;28;20041;-82
2021/07/22 09:04:24;;;;;;;15.10;9.82;;;;;;;;;;5039113;28;20029;-82
2021/07/22 09:06:49;;;;;;;17.83;10.15;;;;;;;;;;5039529;28;20487;-82
2021/07/22 09:09:17;;;;;;;13.52;8.52;;;;;;;;;;5043351;28;20030;-82
2021/07/22 09:12:02;;;;;;;13.55;8.95;;;;;;;;;;5037678;28;20381;-82
2021/07/22 09:14:29;;;;;;;14.10;9.27;;;;;;;;;;5047240;28;20582;-82
2021/07/22 09:16:56;;;;;;;15.13;8.65;;;;;;;;;;5047372;28;20029;-82
2021/07/22 09:19:41;;;;;;;15.70;9.73;;;;;;;;;;5049317;28;20465;-82
2021/07/22 09:22:08;;;;;;;12.95;8.98;;;;;;;;;;5048568;28;20048;-82
2021/07/22 09:24:51;;;;;;;12.90;8.60;;;;;;;;;;5040038;28;20031;-82
2021/07/22 09:27:33;;;;;;;14.70;8.40;;;;;;;;;;5041512;28;20527;-83
2021/07/22 09:29:59;;;;;;;13.35;9.13;;;;;;;;;;5045989;28;20508;-83
2021/07/22 09:32:32;;;;;;;13.55;8.50;;;;;;;;;;5037876;28;20070;-82
2021/07/22 09:35:12;;;;;;;14.27;8.43;;;;;;;;;;5037942;28;20216;-82
2021/07/22 09:37:48;;;;;;;18.73;9.70;;;;;;;;;;5043217;28;20056;-82
2021/07/22 09:40:25;;;;;;;13.05;9.27;;;;;;;;;;5046885;28;20120;-82
2021/07/22 09:42:54;;;;;;;13.90;9.45;;;;;;;;;;5050095;28;20040;-82
2021/07/22 09:45:26;;;;;;;14.18;9.13;;;;;;;;;;5050182;28;20024;-82
2021/07/22 09:47:57;;;;;;;16.98;9.50;;;;;;;;;;5044486;28;20067;-82
2021/07/22 09:50:24;;;;;;;12.88;9.20;;;;;;;;;;5050204;28;20036;-82
2021/07/22 09:53:06;;;;;;;12.00;8.48;;;;;;;;;;5038884;28;20082;-83
2021/07/22 09:55:33;;;;;;;14.18;9.23;;;;;;;;;;5043478;28;20096;-83
2021/07/22 09:58:01;;;;;;;13.73;8.65;;;;;;;;;;5045028;28;20025;-81
2021/07/22 10:00:28;;;;;;;14.40;9.93;;;;;;;;;;5039024;28;20485;-83
2021/07/22 10:02:58;;;;;;;12.65;9.30;;;;;;;;;;5041981;28;20494;-82
2021/07/22 10:05:26;;;;;;;14.68;9.25;;;;;;;;;;5047937;28;20033;-82
2021/07/22 10:07:54;;;;;;;19.65;9.60;;;;;;;;;;5044581;28;20057;-83
2021/07/22 10:10:25;;;;;;;14.90;9.68;;;;;;;;;;5051596;28;20028;-83
2021/07/22 10:12:56;;;;;;;14.35;9.40;;;;;;;;;;5049744;28;20025;-82
2021/07/22 10:15:23;;;;;;;12.20;8.93;;;;;;;;;;5049804;28;20067;-83
2021/07/22 10:17:52;;;;;;;18.83;9.30;;;;;;;;;;5048555;28;20053;-82
2021/07/22 10:20:18;;;;;;;14.82;10.85;;;;;;;;;;5040231;28;20500;-83
2021/07/22 10:22:45;;;;;;;13.63;9.50;;;;;;;;;;5043247;28;20393;-82
2021/07/22 10:25:15;;;;;;;15.63;9.50;;;;;;;;;;5042545;28;20116;-81
2021/07/22 10:27:42;;;;;;;14.20;9.10;;;;;;;;;;5044820;28;20025;-83
2021/07/22 10:30:09;;;;;;;14.05;9.25;;;;;;;;;;5051508;28;20143;-82
2021/07/22 10:32:37;;;;;;;16.33;8.82;;;;;;;;;;5050093;28;20036;-82
2021/07/22 10:35:03;;;;;;;12.77;8.80;;;;;;;;;;5037609;28;20029;-83
2021/07/22 10:37:28;;;;;;;13.10;9.20;;;;;;;;;;5041195;28;20037;-84
2021/07/22 10:40:10;;;;;;;12.57;9.27;;;;;;;;;;5051418;28;20047;-83
2021/07/22 10:42:48;;;;;;;13.30;9.13;;;;;;;;;;5046173;28;20072;-83
2021/07/22 10:45:20;;;;;;;12.10;8.82;;;;;;;;;;5047551;28;20029;-84
2021/07/22 10:48:09;;;;;;;14.52;8.98;;;;;;;;;;5037170;28;20032;-84
2021/07/22 10:50:37;;;;;;;;;;;;;;;;;;5043524;28;20021;-84
2021/07/22 10:53:03;;;;;;;12.80;8.30;;;;;;;;;;5063210;28;19913;-84
2021/07/22 10:55:40;;;;;;;12.68;9.02;;;;;;;;;;5044571;28;20036;-84
2021/07/22 10:58:35;;;;;;;11.27;8.63;;;;;;;;;;5038508;28;20033;-84
2021/07/22 11:01:07;;;;;;;10.55;8.30;;;;;;;;;;5032575;28;20454;-82
2021/07/22 11:03:32;;;;;;;13.63;9.32;;;;;;;;;;5048764;28;20036;-83
2021/07/22 11:05:59;;;;;;;11.48;8.90;;;;;;;;;;5048560;28;20024;-83
2021/07/22 11:08:29;;;;;;;14.20;9.18;;;;;;;;;;5046981;28;20031;-82
2021/07/22 11:11:13;;;;;;;10.15;8.23;;;;;;;;;;5046002;28;20032;-83
2021/07/22 11:13:40;;;;;;;16.58;9.32;;;;;;;;;;5046330;28;20022;-82
2021/07/22 11:16:09;;;;;;;12.05;8.90;;;;;;;;;;5048862;28;20074;-83
2021/07/22 11:18:43;;;;;;;11.65;8.25;;;;;;;;;;5047374;28;20032;-83
2021/07/22 11:21:36;;;;;;;19.25;9.18;;;;;;;;;;5047830;28;20037;-82
2021/07/22 11:24:16;;;;;;;14.20;8.90;;;;;;;;;;5044509;28;20043;-83
2021/07/22 11:26:42;;;;;;;14.27;8.93;;;;;;;;;;5047039;28;20040;-82
2021/07/22 11:29:09;;;;;;;11.82;8.65;;;;;;;;;;5045117;28;20037;-81
2021/07/22 11:31:48;;;;;;;15.02;9.25;;;;;;;;;;5047204;28;20025;-81
2021/07/22 11:34:16;;;;;;;13.93;9.63;;;;;;;;;;5044740;28;20029;-82
2021/07/22 11:36:41;;;;;;;13.77;9.20;;;;;;;;;;5039203;28;20110;-81
2021/07/22 11:39:07;;;;;;;13.55;8.70;;;;;;;;;;5046694;28;20451;-81
2021/07/22 11:41:33;;;;;;;13.23;9.32;;;;;;;;;;5048334;28;20029;-82
2021/07/22 11:44:01;;;;;;;12.63;9.05;;;;;;;;;;5042277;28;20025;-82
2021/07/22 11:46:40;;;;;;;12.27;9.35;;;;;;;;;;5042497;28;20041;-82
2021/07/22 11:49:16;;;;;;;18.25;9.57;;;;;;;;;;5045493;28;20025;-82
2021/07/22 11:51:46;;;;;;;16.20;9.57;;;;;;;;;;5043046;28;20033;-82
2021/07/22 11:54:13;;;;;;;12.02;9.13;;;;;;;;;;5056823;28;20060;-82
2021/07/22 11:56:39;;;;;;;11.38;9.38;;;;;;;;;;5049177;28;20029;-83
2021/07/22 11:59:08;;;;;;;12.90;9.18;;;;;;;;;;5047882;28;20051;-82
2021/07/22 12:01:50;;;;;;;14.27;9.07;;;;;;;;;;5040914;28;20037;-82
2021/07/22 12:04:31;;;;;;;13.68;9.13;;;;;;;;;;5047109;28;20170;-82
2021/07/22 12:06:59;;;;;;;11.05;9.25;;;;;;;;;;5043133;28;20026;-82
2021/07/22 12:09:24;;;;;;;14.30;9.00;;;;;;;;;;5045894;28;20055;-82
2021/07/22 12:11:54;;;;;;;12.48;8.95;;;;;;;;;;5047295;28;20045;-82
2021/07/22 12:14:29;;;;;;;14.90;10.10;;;;;;;;;;5047785;28;20021;-82
2021/07/22 12:16:56;;;;;;;13.30;10.05;;;;;;;;;;5048225;28;20393;-82
2021/07/22 12:19:23;;;;;;;16.50;9.43;;;;;;;;;;5047891;28;20051;-83
2021/07/22 12:22:24;;;;;;;13.00;10.10;;;;;;;;;;5037255;28;20507;-82
2021/07/22 12:24:54;;;;;;;12.65;9.23;;;;;;;;;;5042051;28;20033;-83
2021/07/22 12:27:30;;;;;;;13.55;10.15;;;;;;;;;;5042957;28;20091;-82
2021/07/22 12:29:57;;;;;;;13.40;9.30;;;;;;;;;;5048446;28;20028;-81
2021/07/22 12:32:23;;;;;;;12.18;9.32;;;;;;;;;;5047933;28;20043;-82
2021/07/22 12:34:51;;;;;;;13.60;9.50;;;;;;;;;;5036717;28;20430;-83
2021/07/22 12:37:17;;;;;;;12.65;8.68;;;;;;;;;;5065300;28;20055;-83
2021/07/22 12:39:43;;;;;;;13.57;9.95;;;;;;;;;;5048844;28;20575;-82
2021/07/22 12:42:13;;;;;;;14.82;9.55;;;;;;;;;;5047848;28;20029;-83
2021/07/22 12:44:47;;;;;;;12.63;9.52;;;;;;;;;;5041221;28;20029;-83
2021/07/22 12:47:33;;;;;;;14.07;9.50;;;;;;;;;;5041676;28;20493;-82
2021/07/22 12:50:00;;;;;;;12.02;10.07;;;;;;;;;;5043309;28;20473;-83
2021/07/22 12:52:27;;;;;;;12.30;9.32;;;;;;;;;;5046369;28;20098;-82
2021/07/22 12:55:00;;;;;;;13.27;9.60;;;;;;;;;;5045030;28;20020;-83
2021/07/22 12:57:40;;;;;;;15.20;10.27;;;;;;;;;;5046644;28;20029;-83
2021/07/22 13:00:11;;;;;;;14.20;9.82;;;;;;;;;;5041693;28;20309;-82
2021/07/22 13:02:37;;;;;;;18.02;10.00;;;;;;;;;;5045627;28;20075;-82
2021/07/22 13:05:04;;;;;;;14.20;9.88;;;;;;;;;;5046989;28;20103;-83
2021/07/22 13:07:30;;;;;;;18.20;9.83;;;;;;;;;;5046482;28;20472;-82
2021/07/22 13:09:55;;;;;;;13.05;9.88;;;;;;;;;;5044527;28;20021;-84
2021/07/22 13:12:21;;;;;;;17.33;9.90;;;;;;;;;;5048172;28;20052;-83
2021/07/22 13:14:46;;;;;;;12.93;9.85;;;;;;;;;;5040402;28;20029;-83
2021/07/22 13:17:12;;;;;;;16.77;10.10;;;;;;;;;;5037722;28;20440;-82
2021/07/22 13:19:37;;;;;;;11.55;9.32;;;;;;;;;;5043856;28;20036;-82
2021/07/22 13:22:04;;;;;;;15.38;10.07;;;;;;;;;;5042223;28;20029;-83
2021/07/22 13:24:29;;;;;;;18.63;10.68;;;;;;;;;;5044064;28;20377;-83
2021/07/22 13:26:55;;;;;;;16.58;10.60;;;;;;;;;;5037895;28;20031;-83
2021/07/22 13:29:21;;;;;;;15.73;10.93;;;;;;;;;;5046185;28;20036;-82
2021/07/22 13:31:47;;;;;;;14.60;9.88;;;;;;;;;;5045498;28;20029;-83
2021/07/22 13:34:12;;;;;;;12.50;10.18;;;;;;;;;;5045925;28;20476;-83
2021/07/22 13:36:44;;;;;;;14.98;10.60;;;;;;;;;;5041300;28;20025;-82
2021/07/22 13:39:10;;;;;;;13.75;10.73;;;;;;;;;;5037930;28;20021;-82
2021/07/22 13:41:35;;;;;;;15.30;10.40;;;;;;;;;;5044248;28;20401;-82
2021/07/22 13:44:02;;;;;;;14.48;10.25;;;;;;;;;;5040763;28;20029;-83
2021/07/22 13:46:28;;;;;;;14.02;10.00;;;;;;;;;;5037539;28;20473;-82
2021/07/22 13:48:53;;;;;;;13.82;10.27;;;;;;;;;;5039699;28;20028;-82
2021/07/22 13:51:19;;;;;;;13.20;10.48;;;;;;;;;;5044901;28;20116;-82
2021/07/22 13:53:44;;;;;;;14.65;10.10;;;;;;;;;;5046456;28;20091;-82
2021/07/22 13:56:10;;;;;;;16.80;10.57;;;;;;;;;;5044783;28;20106;-82
2021/07/22 13:58:35;;;;;;;16.80;10.40;;;;;;;;;;5038992;28;20107;-83
2021/07/22 14:01:01;;;;;;;13.70;10.52;;;;;;;;;;5037259;28;20025;-81
2021/07/22 14:03:29;;;;;;;17.00;10.67;;;;;;;;;;5045590;28;20052;-83
2021/07/22 14:05:54;;;;;;;12.43;10.25;;;;;;;;;;5044881;28;20083;-82
2021/07/22 14:08:20;;;;;;;12.52;10.45;;;;;;;;;;5040096;28;20067;-83
2021/07/22 14:10:46;;;;;;;15.60;10.30;;;;;;;;;;5043567;28;20037;-82
2021/07/22 14:13:12;;;;;;;12.63;10.52;;;;;;;;;;5044447;28;20703;-82
2021/07/22 14:15:37;;;;;;;15.55;10.57;;;;;;;;;;5039877;28;20463;-82
2021/07/22 14:18:03;;;;;;;12.63;10.52;;;;;;;;;;5042988;28;20459;-82
2021/07/22 14:20:28;;;;;;;14.85;10.48;;;;;;;;;;5040094;28;20106;-83
2021/07/22 14:22:54;;;;;;;13.35;10.40;;;;;;;;;;5045626;28;20476;-82
2021/07/22 14:25:19;;;;;;;15.05;10.82;;;;;;;;;;5039616;28;20098;-82